Terminal Aerodrome Forecast
Issued by NWS Tulsa, OK

Home | Current Version | Previous Version | Text Only | Print | Product List | Glossary On
Versions: 1 2 3 4 5 6 7 8 9 10 11 12 13 14 15 16 17
000
FTUS44 KTSA 020520
TAFTUL
TAF
KTUL 020520Z 0206/0306 33009KT P6SM VCSH BKN100
     FM021200 33006KT P6SM BKN100
     FM021500 34008KT P6SM OVC025
     FM022100 34009KT P6SM OVC050
     FM030300 33002KT P6SM FEW250=

USA.gov is the U.S. government's official web portal to all federal, state and local government web resources and services.